Time;durP1;ratioP1;P1;durP2;ratioP2;P2;SDS_P1;SDS_P2;PMS_P1;PMS_P2;Temp;Humidity;BMP_temperature;BMP_pressure;BME280_temperature;BME280_humidity;BME280_pressure;Samples;Min_cycle;Max_cycle;Signal;HPM_P1;HPM_P2
2023/06/12 00:00:52;;;;;;;3.97;3.67;;;19.10;79.60;;;;;;5027376;28;20587;-70
2023/06/12 00:03:19;;;;;;;4.40;3.77;;;19.10;79.70;;;;;;5030584;28;20423;-70
2023/06/12 00:05:45;;;;;;;4.43;4.03;;;19.00;79.60;;;;;;5026954;28;20411;-69
2023/06/12 00:08:13;;;;;;;4.17;3.77;;;19.00;79.30;;;;;;5030333;28;20909;-70
2023/06/12 00:10:43;;;;;;;5.10;4.23;;;19.00;79.00;;;;;;5028737;28;20444;-69
2023/06/12 00:13:10;;;;;;;5.00;4.60;;;19.00;79.40;;;;;;5029440;28;20451;-69
2023/06/12 00:15:38;;;;;;;6.03;3.90;;;19.00;79.30;;;;;;5022120;28;20438;-70
2023/06/12 00:18:04;;;;;;;4.00;3.60;;;18.90;79.30;;;;;;5030583;28;20860;-70
2023/06/12 00:20:31;;;;;;;4.97;4.47;;;18.90;79.20;;;;;;5026710;28;20915;-69
2023/06/12 00:22:57;;;;;;;4.10;3.70;;;18.80;79.30;;;;;;5015478;28;20905;-69
2023/06/12 00:25:23;;;;;;;4.33;3.97;;;18.80;79.20;;;;;;5024725;28;20418;-69
2023/06/12 00:27:48;;;;;;;4.63;4.23;;;18.70;78.90;;;;;;5019192;28;20413;-69
2023/06/12 00:30:15;;;;;;;4.27;3.87;;;18.70;78.90;;;;;;5026255;28;20193;-69
2023/06/12 00:32:40;;;;;;;4.13;3.73;;;18.60;78.80;;;;;;5031624;28;20195;-70
2023/06/12 00:35:06;;;;;;;4.90;4.23;;;18.60;78.30;;;;;;5028372;28;20469;-69
2023/06/12 00:37:32;;;;;;;4.40;3.83;;;18.60;78.40;;;;;;5029183;28;20187;-69
2023/06/12 00:40:01;;;;;;;3.60;3.30;;;18.50;78.30;;;;;;5031648;28;20479;-70
2023/06/12 00:42:32;;;;;;;3.53;3.23;;;18.50;78.40;;;;;;5026918;28;20500;-68
2023/06/12 00:44:57;;;;;;;5.90;3.77;;;18.50;78.10;;;;;;5032638;28;20415;-71
2023/06/12 00:47:24;;;;;;;4.27;3.97;;;18.50;77.70;;;;;;5026921;28;20458;-69
2023/06/12 00:49:50;;;;;;;4.20;3.80;;;18.50;77.20;;;;;;5029391;28;20289;-69
2023/06/12 00:52:18;;;;;;;9.27;4.27;;;18.40;77.10;;;;;;5024612;28;20544;-69
2023/06/12 00:54:47;;;;;;;4.03;3.47;;;18.40;76.80;;;;;;5028526;28;20425;-70
2023/06/12 00:57:13;;;;;;;5.97;3.97;;;18.40;76.50;;;;;;5024922;28;20476;-69
2023/06/12 00:59:38;;;;;;;5.80;4.53;;;18.30;76.30;;;;;;5028522;28;20947;-69
2023/06/12 01:02:06;;;;;;;7.83;3.50;;;18.30;76.60;;;;;;5024558;28;20178;-69
2023/06/12 01:04:33;;;;;;;3.40;3.10;;;18.20;76.20;;;;;;5026113;28;20183;-70
2023/06/12 01:07:14;;;;;;;8.27;4.80;;;18.20;76.10;;;;;;5028924;28;20402;-69
2023/06/12 01:09:59;;;;;;;3.97;3.67;;;18.20;75.70;;;;;;5022929;28;20468;-69
2023/06/12 01:12:25;;;;;;;4.40;3.70;;;18.20;75.80;;;;;;5031955;28;20467;-69
2023/06/12 01:14:51;;;;;;;6.03;4.00;;;18.10;75.40;;;;;;5027989;28;20422;-70
2023/06/12 01:17:17;;;;;;;5.27;4.10;;;18.20;75.00;;;;;;5032061;28;20512;-69
2023/06/12 01:19:42;;;;;;;5.43;3.30;;;18.10;75.40;;;;;;5027426;28;20227;-69
2023/06/12 01:22:12;;;;;;;4.13;2.90;;;18.00;75.10;;;;;;5031490;28;20182;-69
2023/06/12 01:24:38;;;;;;;4.00;3.60;;;17.90;75.20;;;;;;5027838;28;20189;-69
2023/06/12 01:27:36;;;;;;;3.90;3.50;;;18.00;74.80;;;;;;5030313;28;20405;-70
2023/06/12 01:30:14;;;;;;;4.43;3.10;;;17.90;74.40;;;;;;5024735;28;20287;-69
2023/06/12 01:32:40;;;;;;;5.50;3.30;;;17.90;74.10;;;;;;5028502;28;20553;-69
2023/06/12 01:35:17;;;;;;;3.20;2.90;;;17.90;74.70;;;;;;5026698;28;20830;-68
2023/06/12 01:37:54;;;;;;;6.53;3.77;;;17.90;74.00;;;;;;5030313;28;20217;-69
2023/06/12 01:40:22;;;;;;;3.70;3.30;;;17.80;73.60;;;;;;5027183;28;20433;-69
2023/06/12 01:42:48;;;;;;;3.30;2.73;;;17.80;73.40;;;;;;5032933;28;20489;-69
2023/06/12 01:45:13;;;;;;;3.53;3.23;;;17.90;72.80;;;;;;5030414;28;20753;-69
2023/06/12 01:47:39;;;;;;;4.33;3.27;;;17.80;72.60;;;;;;5032555;28;20801;-69
2023/06/12 01:50:06;;;;;;;2.83;2.53;;;17.70;72.50;;;;;;5031129;28;20202;-68
2023/06/12 01:52:34;;;;;;;5.23;3.17;;;17.70;72.80;;;;;;5032499;28;20256;-69
2023/06/12 01:55:00;;;;;;;4.10;3.00;;;17.70;72.70;;;;;;5026957;28;20512;-69
2023/06/12 01:57:27;;;;;;;4.50;4.10;;;17.60;72.90;;;;;;5030730;28;20529;-68
2023/06/12 01:59:53;;;;;;;5.30;3.47;;;17.60;72.60;;;;;;5021406;28;20481;-70
2023/06/12 02:02:20;;;;;;;4.13;3.40;;;17.60;72.10;;;;;;5028508;28;20418;-69
2023/06/12 02:04:46;;;;;;;3.60;3.03;;;17.60;71.80;;;;;;5032230;28;20423;-69
2023/06/12 02:07:12;;;;;;;3.67;3.20;;;17.60;71.50;;;;;;5028359;28;20504;-69
2023/06/12 02:09:38;;;;;;;4.00;2.80;;;17.50;71.40;;;;;;5030935;28;20506;-70
2023/06/12 02:12:04;;;;;;;3.57;3.27;;;17.50;71.70;;;;;;5027672;28;20447;-70
2023/06/12 02:14:30;;;;;;;3.67;3.30;;;17.50;71.50;;;;;;5030113;28;20179;-69
2023/06/12 02:16:56;;;;;;;4.20;3.73;;;17.50;71.20;;;;;;5028150;28;20493;-69
2023/06/12 02:19:25;;;;;;;2.87;2.67;;;17.50;71.30;;;;;;5027639;28;20752;-69
2023/06/12 02:21:54;;;;;;;3.87;2.73;;;17.40;71.80;;;;;;5031416;28;20216;-69
2023/06/12 02:24:22;;;;;;;4.23;3.80;;;17.40;73.10;;;;;;5027266;28;20771;-68
2023/06/12 02:26:47;;;;;;;3.57;3.27;;;17.30;72.60;;;;;;5025221;28;20959;-69
2023/06/12 02:29:13;;;;;;;3.57;3.27;;;17.30;73.10;;;;;;5032020;28;20625;-69
2023/06/12 02:31:39;;;;;;;3.63;3.30;;;17.20;73.40;;;;;;5030328;28;20312;-68
2023/06/12 02:34:05;;;;;;;3.83;3.50;;;17.20;73.70;;;;;;5026492;28;20955;-70
2023/06/12 02:36:33;;;;;;;3.53;2.77;;;17.20;74.30;;;;;;5028363;28;20502;-70
2023/06/12 02:39:01;;;;;;;3.70;3.40;;;17.10;74.90;;;;;;5031618;28;20189;-69
2023/06/12 02:41:27;;;;;;;4.67;3.50;;;17.10;75.60;;;;;;5026534;28;20491;-69
2023/06/12 02:43:52;;;;;;;3.90;3.27;;;17.00;76.80;;;;;;5028985;28;20876;-69
2023/06/12 02:46:18;;;;;;;4.13;3.73;;;17.00;77.90;;;;;;5031319;28;20188;-69
2023/06/12 02:48:43;;;;;;;3.93;3.30;;;16.90;78.50;;;;;;5028261;28;20201;-69
2023/06/12 02:51:09;;;;;;;6.80;3.80;;;16.80;79.50;;;;;;5030944;28;20182;-69
2023/06/12 02:53:35;;;;;;;8.70;4.27;;;16.70;80.50;;;;;;5027227;28;20591;-69
2023/06/12 02:56:00;;;;;;;4.83;3.77;;;16.70;81.40;;;;;;5029845;28;20173;-69
2023/06/12 02:58:27;;;;;;;10.13;4.43;;;16.60;82.30;;;;;;5026049;28;20198;-68
2023/06/12 03:00:52;;;;;;;7.43;3.60;;;16.50;82.90;;;;;;5023152;28;20280;-68
2023/06/12 03:03:20;;;;;;;5.00;4.50;;;16.50;83.40;;;;;;5031225;28;20446;-69
2023/06/12 03:05:46;;;;;;;4.03;3.67;;;16.40;83.80;;;;;;5027833;28;20621;-70
2023/06/12 03:08:13;;;;;;;9.00;4.90;;;16.40;84.50;;;;;;5030750;28;20540;-70
2023/06/12 03:10:39;;;;;;;7.83;4.13;;;16.30;84.50;;;;;;5030425;28;20428;-70
2023/06/12 03:13:05;;;;;;;5.00;4.60;;;16.30;84.60;;;;;;5031790;28;20554;-70
2023/06/12 03:15:31;;;;;;;3.93;2.93;;;16.30;85.30;;;;;;5031641;28;20421;-69
2023/06/12 03:17:56;;;;;;;5.20;4.30;;;16.20;85.50;;;;;;5032399;28;20436;-70
2023/06/12 03:20:24;;;;;;;7.57;4.70;;;16.20;86.10;;;;;;5027260;28;20204;-69
2023/06/12 03:22:50;;;;;;;4.27;3.53;;;16.10;86.40;;;;;;5020878;28;20181;-68
2023/06/12 03:25:18;;;;;;;3.73;3.37;;;16.10;86.90;;;;;;5020911;28;20435;-69
2023/06/12 03:27:45;;;;;;;5.70;4.80;;;16.10;87.00;;;;;;5022979;28;20436;-71
2023/06/12 03:30:11;;;;;;;7.60;4.43;;;16.10;87.10;;;;;;5025716;28;20446;-69
2023/06/12 03:32:37;;;;;;;6.47;4.03;;;16.10;86.60;;;;;;5027528;28;20924;-70
2023/06/12 03:35:03;;;;;;;4.57;4.03;;;16.10;86.40;;;;;;5029148;28;20457;-70
2023/06/12 03:37:29;;;;;;;4.10;3.70;;;16.10;86.40;;;;;;5026564;28;20631;-70
2023/06/12 03:39:55;;;;;;;5.17;4.67;;;16.10;86.60;;;;;;5031574;28;20435;-70
2023/06/12 03:42:21;;;;;;;4.73;3.80;;;16.10;86.70;;;;;;5026967;28;20264;-70
2023/06/12 03:44:46;;;;;;;3.80;3.50;;;16.10;86.40;;;;;;5025983;28;20879;-69
2023/06/12 03:47:12;;;;;;;4.17;3.77;;;16.10;86.50;;;;;;5028216;28;20443;-70
2023/06/12 03:49:39;;;;;;;4.90;4.37;;;16.20;86.20;;;;;;5029399;28;20212;-70
2023/06/12 03:52:05;;;;;;;5.73;5.27;;;16.20;85.60;;;;;;5030787;28;20539;-69
2023/06/12 03:54:31;;;;;;;4.37;3.60;;;16.20;85.20;;;;;;5026408;28;20480;-71
2023/06/12 03:56:56;;;;;;;8.70;3.93;;;16.30;85.70;;;;;;5029517;28;20482;-70
2023/06/12 03:59:22;;;;;;;7.13;4.30;;;16.30;85.10;;;;;;5025419;28;20451;-70
2023/06/12 04:01:48;;;;;;;4.80;3.90;;;16.30;84.60;;;;;;5028096;28;20170;-71
2023/06/12 04:04:14;;;;;;;3.57;3.13;;;16.30;85.20;;;;;;5018743;28;20577;-69
2023/06/12 04:06:41;;;;;;;5.90;4.00;;;16.30;86.00;;;;;;5026085;28;20423;-69
2023/06/12 04:09:09;;;;;;;5.80;3.87;;;16.40;85.20;;;;;;5029068;28;20454;-69
2023/06/12 04:11:35;;;;;;;5.10;4.30;;;16.40;84.70;;;;;;5024543;28;20424;-69
2023/06/12 04:14:01;;;;;;;4.90;3.90;;;16.50;84.60;;;;;;5028765;28;20831;-69
2023/06/12 04:16:27;;;;;;;5.20;3.93;;;17.10;83.50;;;;;;5024680;28;20190;-70
2023/06/12 04:18:53;;;;;;;4.90;3.80;;;18.10;81.20;;;;;;5023881;28;20430;-69
2023/06/12 04:21:21;;;;;;;6.63;3.30;;;18.90;79.00;;;;;;5025461;28;20267;-69
2023/06/12 04:23:47;;;;;;;4.77;3.47;;;19.40;76.80;;;;;;5026158;28;20932;-71
2023/06/12 04:26:16;;;;;;;5.53;4.23;;;20.30;74.60;;;;;;5028578;28;20918;-70
2023/06/12 04:28:41;;;;;;;3.50;3.20;;;20.50;71.20;;;;;;5025060;28;20419;-71
2023/06/12 04:31:08;;;;;;;3.40;3.10;;;20.40;72.60;;;;;;5027829;28;20412;-70
2023/06/12 04:33:35;;;;;;;5.00;3.60;;;21.10;71.90;;;;;;5024370;28;20196;-69
2023/06/12 04:36:02;;;;;;;3.10;2.70;;;21.00;70.30;;;;;;5025512;28;20429;-70
2023/06/12 04:38:30;;;;;;;9.27;3.73;;;21.00;70.90;;;;;;5029005;28;20912;-69
2023/06/12 04:40:58;;;;;;;3.13;2.83;;;21.00;70.50;;;;;;5025937;28;20444;-70
2023/06/12 04:43:24;;;;;;;5.00;3.17;;;20.90;69.20;;;;;;5026637;28;20423;-70
2023/06/12 04:45:51;;;;;;;3.47;3.17;;;20.70;70.10;;;;;;5029573;28;20421;-70
2023/06/12 04:48:18;;;;;;;4.13;3.80;;;19.90;70.70;;;;;;5026348;28;20846;-70
2023/06/12 04:50:47;;;;;;;4.63;3.67;;;19.50;72.30;;;;;;5026232;28;20501;-69
2023/06/12 04:53:12;;;;;;;4.77;3.27;;;19.30;73.40;;;;;;5023727;28;20825;-70
2023/06/12 04:55:38;;;;;;;4.27;3.80;;;19.40;73.60;;;;;;5028189;28;20420;-70
2023/06/12 04:58:04;;;;;;;7.90;3.40;;;19.40;73.30;;;;;;5024621;28;20559;-69
2023/06/12 05:00:30;;;;;;;6.70;3.20;;;19.80;72.60;;;;;;5027244;28;20304;-70
2023/06/12 05:02:56;;;;;;;4.70;3.43;;;20.10;72.30;;;;;;5029445;28;20181;-70
2023/06/12 05:05:21;;;;;;;11.07;3.90;;;20.60;72.10;;;;;;5026188;28;20425;-69
2023/06/12 05:07:48;;;;;;;6.17;4.67;;;21.10;71.60;;;;;;5027384;28;20185;-69
2023/06/12 05:10:17;;;;;;;5.93;5.23;;;21.30;69.80;;;;;;5022978;28;20291;-69
2023/06/12 05:12:42;;;;;;;7.93;6.37;;;21.30;68.10;;;;;;5027267;28;20596;-71
2023/06/12 05:15:09;;;;;;;6.57;4.70;;;20.90;68.50;;;;;;5030245;28;20423;-69
2023/06/12 05:17:34;;;;;;;8.97;5.83;;;21.20;68.80;;;;;;5027583;28;20173;-70
2023/06/12 05:20:01;;;;;;;6.53;4.40;;;21.20;68.60;;;;;;5029941;28;20437;-70
2023/06/12 05:22:26;;;;;;;9.80;5.27;;;21.30;68.50;;;;;;5026346;28;20190;-69
2023/06/12 05:24:52;;;;;;;9.77;4.90;;;21.70;68.60;;;;;;5018479;28;20607;-70
2023/06/12 05:27:17;;;;;;;7.90;4.60;;;21.60;67.60;;;;;;5022907;28;20195;-70
2023/06/12 05:29:43;;;;;;;9.80;5.23;;;21.80;67.90;;;;;;5028455;28;20198;-69
2023/06/12 05:32:09;;;;;;;8.23;5.20;;;22.20;66.70;;;;;;5025241;28;20182;-69
2023/06/12 05:34:34;;;;;;;5.20;4.70;;;22.10;66.60;;;;;;5027309;28;20259;-68
2023/06/12 05:37:02;;;;;;;5.97;4.50;;;22.60;66.00;;;;;;5030122;28;20247;-68
2023/06/12 05:39:27;;;;;;;5.20;4.60;;;22.70;65.80;;;;;;5029704;28;20633;-70
2023/06/12 05:41:53;;;;;;;5.27;3.60;;;22.50;65.30;;;;;;5024368;28;20420;-70
2023/06/12 05:44:18;;;;;;;4.53;3.83;;;22.60;64.40;;;;;;5023405;28;20611;-70
2023/06/12 05:46:45;;;;;;;7.40;3.73;;;22.70;65.30;;;;;;5028968;28;20271;-70
2023/06/12 05:49:11;;;;;;;4.10;2.60;;;22.80;64.40;;;;;;5025878;28;20336;-69
2023/06/12 05:51:37;;;;;;;4.13;3.60;;;22.60;65.20;;;;;;5028507;28;20410;-70
2023/06/12 05:54:02;;;;;;;3.23;2.93;;;23.00;65.40;;;;;;5024697;28;20469;-71
2023/06/12 05:56:29;;;;;;;5.17;3.23;;;23.50;63.80;;;;;;5027321;28;20586;-72
2023/06/12 05:58:54;;;;;;;4.87;3.27;;;23.40;65.00;;;;;;5029606;28;20218;-71
2023/06/12 06:01:24;;;;;;;3.50;3.20;;;23.50;64.50;;;;;;5030071;28;20455;-70
2023/06/12 06:03:50;;;;;;;4.37;3.40;;;23.30;64.40;;;;;;5032786;28;20668;-71
2023/06/12 06:06:16;;;;;;;4.87;3.20;;;23.80;64.30;;;;;;5029512;28;20749;-71
2023/06/12 06:08:42;;;;;;;3.30;2.87;;;24.00;63.40;;;;;;5031526;28;20524;-72
2023/06/12 06:11:08;;;;;;;4.67;3.30;;;24.00;64.60;;;;;;5028471;28;20513;-70
2023/06/12 06:13:34;;;;;;;5.87;3.07;;;24.50;65.00;;;;;;5030646;28;20202;-70
2023/06/12 06:16:01;;;;;;;5.80;3.30;;;25.10;62.20;;;;;;5026835;28;20928;-69
2023/06/12 06:18:27;;;;;;;5.80;3.50;;;25.10;62.50;;;;;;5029683;28;20406;-70
2023/06/12 06:20:52;;;;;;;5.10;3.60;;;25.20;64.20;;;;;;5032274;28;20430;-70
2023/06/12 06:23:18;;;;;;;5.00;3.20;;;25.10;63.90;;;;;;5029189;28;20182;-69
2023/06/12 06:25:44;;;;;;;5.50;3.17;;;25.60;61.50;;;;;;5030998;28;20175;-70
2023/06/12 06:28:09;;;;;;;7.77;4.00;;;26.10;60.00;;;;;;5028081;28;20191;-71
2023/06/12 06:30:35;;;;;;;4.13;3.10;;;26.70;59.10;;;;;;5028420;28;20283;-70
2023/06/12 06:33:01;;;;;;;3.23;2.90;;;26.90;58.50;;;;;;5022772;28;20713;-70
2023/06/12 06:35:26;;;;;;;5.63;3.53;;;26.70;59.20;;;;;;5031019;28;20406;-70
2023/06/12 06:37:52;;;;;;;4.50;3.87;;;27.10;59.00;;;;;;5030977;28;20172;-70
2023/06/12 06:40:18;;;;;;;3.43;3.10;;;26.70;58.80;;;;;;5030894;28;20199;-70
2023/06/12 06:42:44;;;;;;;5.47;3.47;;;26.30;59.50;;;;;;5028673;28;20318;-71
2023/06/12 06:45:10;;;;;;;5.20;3.10;;;26.60;60.00;;;;;;5031461;28;20214;-70
2023/06/12 06:47:36;;;;;;;7.27;3.50;;;27.30;58.50;;;;;;5030370;28;20488;-70
2023/06/12 06:50:01;;;;;;;5.13;3.40;;;27.30;57.90;;;;;;5028837;28;20476;-71
2023/06/12 06:52:27;;;;;;;4.30;3.63;;;27.70;58.10;;;;;;5031419;28;20210;-69
2023/06/12 06:54:53;;;;;;;3.30;3.00;;;27.60;57.10;;;;;;5025878;28;20262;-70
2023/06/12 06:57:19;;;;;;;4.07;3.00;;;28.00;56.90;;;;;;5029064;28;20164;-70
2023/06/12 06:59:45;;;;;;;4.17;3.40;;;28.40;56.90;;;;;;5027759;28;20214;-70
2023/06/12 07:02:10;;;;;;;4.10;2.93;;;27.80;57.10;;;;;;5031550;28;20917;-71
2023/06/12 07:04:36;;;;;;;3.97;3.40;;;26.90;58.10;;;;;;5030103;28;20174;-71
2023/06/12 07:07:03;;;;;;;4.20;3.50;;;27.60;58.10;;;;;;5028335;28;20176;-72
2023/06/12 07:09:29;;;;;;;3.90;3.60;;;28.00;56.90;;;;;;5031045;28;20195;-70
2023/06/12 07:11:55;;;;;;;3.90;3.60;;;27.50;57.50;;;;;;5025649;28;20426;-70
2023/06/12 07:14:20;;;;;;;4.93;3.77;;;28.00;57.30;;;;;;5031042;28;20454;-70
2023/06/12 07:16:46;;;;;;;8.93;3.70;;;28.30;57.30;;;;;;5022898;28;20212;-71
2023/06/12 07:19:12;;;;;;;5.57;3.33;;;28.70;55.90;;;;;;5032030;28;20267;-70
2023/06/12 07:21:37;;;;;;;3.40;3.10;;;28.70;55.90;;;;;;5029692;28;20254;-69
2023/06/12 07:24:04;;;;;;;7.83;3.60;;;28.20;56.70;;;;;;5027956;28;20633;-71
2023/06/12 07:26:29;;;;;;;3.73;3.43;;;28.60;56.10;;;;;;5029192;28;20564;-70
2023/06/12 07:28:56;;;;;;;3.50;3.20;;;28.50;54.90;;;;;;5029107;28;20419;-70
2023/06/12 07:31:21;;;;;;;5.80;2.67;;;28.90;54.80;;;;;;5030949;28;20203;-71
2023/06/12 07:33:47;;;;;;;4.17;3.70;;;28.80;54.80;;;;;;5025903;28;20500;-71
2023/06/12 07:36:14;;;;;;;4.20;3.30;;;28.80;53.30;;;;;;5026554;28;20191;-70
2023/06/12 07:38:41;;;;;;;5.10;3.57;;;28.00;56.10;;;;;;5030720;28;20194;-69
2023/06/12 07:41:07;;;;;;;3.50;3.20;;;28.90;54.50;;;;;;5025937;28;20411;-70
2023/06/12 07:43:58;;;;;;;7.00;3.27;;;28.70;53.50;;;;;;5028396;28;20421;-70
2023/06/12 07:46:34;;;;;;;4.93;3.47;;;28.20;54.00;;;;;;5030759;28;20517;-70
2023/06/12 07:49:07;;;;;;;5.00;3.60;;;28.80;53.20;;;;;;5024512;28;20438;-71
2023/06/12 07:51:35;;;;;;;5.60;2.97;;;28.70;52.40;;;;;;5027249;28;20443;-70
2023/06/12 07:54:12;;;;;;;3.87;3.17;;;27.60;53.80;;;;;;5026885;28;20473;-71
2023/06/12 07:56:40;;;;;;;5.37;3.00;;;27.50;54.10;;;;;;5026964;28;20422;-70
2023/06/12 07:59:12;;;;;;;4.90;3.30;;;28.60;52.40;;;;;;5026259;28;20453;-70
2023/06/12 08:01:38;;;;;;;3.43;3.13;;;28.80;51.40;;;;;;5025433;28;20414;-70
2023/06/12 08:04:10;;;;;;;3.47;3.20;;;28.60;52.00;;;;;;5030475;28;20410;-70
2023/06/12 08:06:42;;;;;;;4.80;3.63;;;28.40;52.00;;;;;;5026123;28;20418;-70
2023/06/12 08:09:10;;;;;;;5.53;3.10;;;27.50;52.20;;;;;;5030394;28;20541;-70
2023/06/12 08:11:39;;;;;;;3.20;2.90;;;28.00;52.00;;;;;;5024568;28;20420;-71
2023/06/12 08:14:08;;;;;;;3.70;3.40;;;28.10;51.20;;;;;;5029769;28;20555;-70
2023/06/12 08:16:33;;;;;;;3.83;3.50;;;27.40;52.00;;;;;;5023916;28;20414;-71
2023/06/12 08:19:11;;;;;;;3.63;3.30;;;27.50;51.10;;;;;;5023415;28;20449;-71
2023/06/12 08:21:40;;;;;;;3.30;3.00;;;27.60;51.70;;;;;;5028913;28;20178;-71
2023/06/12 08:24:10;;;;;;;3.63;2.93;;;27.80;49.70;;;;;;5027186;28;20421;-71
2023/06/12 08:26:39;;;;;;;2.87;2.50;;;28.40;49.30;;;;;;5028541;28;20825;-70
2023/06/12 08:29:12;;;;;;;3.30;2.23;;;28.00;49.40;;;;;;5024973;28;20897;-70
2023/06/12 08:31:41;;;;;;;3.33;3.03;;;28.10;49.40;;;;;;5028164;28;20787;-71
2023/06/12 08:34:12;;;;;;;3.93;2.90;;;28.60;49.80;;;;;;5023553;28;20553;-70
2023/06/12 08:36:43;;;;;;;4.27;3.23;;;27.70;49.00;;;;;;5023759;28;20433;-69
2023/06/12 08:39:13;;;;;;;4.90;3.07;;;28.10;50.00;;;;;;5029792;28;20425;-70
2023/06/12 08:41:52;;;;;;;3.27;3.03;;;27.60;50.70;;;;;;5023727;28;20956;-70
2023/06/12 08:44:24;;;;;;;4.63;3.67;;;27.80;50.20;;;;;;5026762;28;20410;-70
2023/06/12 08:47:00;;;;;;;3.10;2.80;;;28.40;50.10;;;;;;5029413;28;20448;-71
2023/06/12 08:49:31;;;;;;;3.70;3.20;;;28.00;49.70;;;;;;5026447;28;20433;-70
2023/06/12 08:51:58;;;;;;;3.60;2.70;;;28.40;49.20;;;;;;5029463;28;20881;-69
2023/06/12 08:54:32;;;;;;;5.90;2.40;;;27.90;49.00;;;;;;5025589;28;20453;-71
2023/06/12 08:57:03;;;;;;;2.83;2.63;;;28.40;49.20;;;;;;5022127;28;20423;-71
2023/06/12 08:59:28;;;;;;;4.47;2.70;;;28.60;48.30;;;;;;5024499;28;20449;-71
2023/06/12 09:02:00;;;;;;;3.80;2.73;;;28.60;48.50;;;;;;5028149;28;20410;-69
2023/06/12 09:04:59;;;;;;;6.07;3.00;;;28.50;48.60;;;;;;5029432;28;20190;-70
2023/06/12 09:07:30;;;;;;;4.00;3.70;;;28.40;49.20;;;;;;5025168;28;20445;-70
2023/06/12 09:10:01;;;;;;;3.83;3.53;;;27.80;49.70;;;;;;5019662;28;20426;-71
2023/06/12 09:12:32;;;;;;;2.90;2.67;;;28.40;49.60;;;;;;5018078;28;20485;-70
2023/06/12 09:15:05;;;;;;;3.50;3.20;;;28.20;49.70;;;;;;5027556;28;20503;-71
2023/06/12 09:17:36;;;;;;;5.40;3.37;;;28.90;49.60;;;;;;5026622;28;20493;-69
2023/06/12 09:20:03;;;;;;;5.60;2.90;;;28.70;49.20;;;;;;5029545;28;21083;-69
2023/06/12 09:22:29;;;;;;;6.50;3.03;;;28.80;49.80;;;;;;5024387;28;20411;-71
2023/06/12 09:25:05;;;;;;;3.27;2.90;;;28.90;49.70;;;;;;5028672;28;20410;-70
2023/06/12 09:27:43;;;;;;;7.50;3.20;;;28.50;49.60;;;;;;5029175;28;20792;-70
2023/06/12 09:30:47;;;;;;;3.73;3.43;;;28.60;50.10;;;;;;5027930;28;20421;-70
2023/06/12 09:33:12;;;;;;;3.53;3.23;;;28.40;49.90;;;;;;5022427;28;20782;-70
2023/06/12 09:35:56;;;;;;;4.40;3.53;;;28.20;50.40;;;;;;5031176;28;20426;-70
2023/06/12 09:38:37;;;;;;;4.30;3.10;;;28.60;50.60;;;;;;5033512;28;20476;-70
2023/06/12 09:41:10;;;;;;;4.10;3.73;;;28.70;50.30;;;;;;5022591;28;20426;-70
2023/06/12 09:43:47;;;;;;;4.63;3.07;;;28.70;49.80;;;;;;5028792;28;20479;-71
2023/06/12 09:46:12;;;;;;;3.03;2.83;;;29.40;49.40;;;;;;5032891;28;20413;-70
2023/06/12 09:48:41;;;;;;;3.47;3.10;;;29.50;49.00;;;;;;5032816;28;20406;-70
2023/06/12 09:51:10;;;;;;;3.80;3.30;;;29.20;49.30;;;;;;5024471;28;20434;-72
2023/06/12 09:53:40;;;;;;;3.43;3.13;;;28.70;50.20;;;;;;5027991;28;20596;-72
2023/06/12 09:56:12;;;;;;;5.37;3.30;;;28.70;50.50;;;;;;5027515;28;20445;-70
2023/06/12 09:58:47;;;;;;;6.37;3.73;;;28.90;50.20;;;;;;5028973;28;20818;-71
2023/06/12 10:01:26;;;;;;;3.27;2.97;;;29.10;50.10;;;;;;5030544;28;20436;-73
2023/06/12 10:04:02;;;;;;;3.70;3.40;;;29.90;50.10;;;;;;5032608;28;20410;-70
2023/06/12 10:06:33;;;;;;;6.73;4.00;;;29.50;50.10;;;;;;5029270;28;20471;-71
2023/06/12 10:08:59;;;;;;;3.43;2.77;;;28.60;50.40;;;;;;5025365;28;20856;-70
2023/06/12 10:11:28;;;;;;;4.53;4.17;;;27.90;52.10;;;;;;5026981;28;20414;-70
2023/06/12 10:13:58;;;;;;;4.43;4.03;;;27.40;52.50;;;;;;5028603;28;20826;-72
2023/06/12 10:16:30;;;;;;;7.97;7.27;;;26.80;53.10;;;;;;5028820;28;20520;-71
2023/06/12 10:18:56;;;;;;;6.97;6.30;;;26.40;54.20;;;;;;5027703;28;20418;-72
2023/06/12 10:21:25;;;;;;;9.90;7.13;;;26.70;54.90;;;;;;5028256;28;20464;-71
2023/06/12 10:23:54;;;;;;;18.57;13.53;;;26.40;55.10;;;;;;5027818;28;20418;-71
2023/06/12 10:26:23;;;;;;;7.60;6.17;;;25.90;56.00;;;;;;5032586;28;20474;-71
2023/06/12 10:28:55;;;;;;;11.27;10.17;;;25.40;57.20;;;;;;5025995;28;20413;-71
2023/06/12 10:31:24;;;;;;;14.37;12.50;;;25.80;57.50;;;;;;5032830;28;20415;-70
2023/06/12 10:34:03;;;;;;;7.80;5.90;;;26.40;57.30;;;;;;5023958;28;20450;-70
2023/06/12 10:36:47;;;;;;;7.10;6.43;;;26.20;57.50;;;;;;5030615;28;20479;-66
2023/06/12 10:39:23;;;;;;;8.47;7.60;;;25.40;58.40;;;;;;5029287;28;20961;-70
2023/06/12 10:42:04;;;;;;;6.50;5.90;;;25.60;59.10;;;;;;5026802;28;20881;-70
2023/06/12 10:47:40;;;;;;;7.83;7.13;;;25.60;59.30;;;;;;5030556;28;20681;-70
2023/06/12 10:50:15;;;;;;;6.50;4.90;;;25.60;59.70;;;;;;5029464;28;20433;-70
2023/06/12 10:53:14;;;;;;;10.67;9.57;;;25.60;60.90;;;;;;5030345;28;20619;-70
2023/06/12 10:55:43;;;;;;;9.47;6.77;;;25.40;60.40;;;;;;5025546;28;20583;-71
2023/06/12 10:58:26;;;;;;;6.20;5.60;;;25.30;61.30;;;;;;5026375;28;20418;-71
2023/06/12 11:00:52;;;;;;;9.30;7.50;;;25.30;61.10;;;;;;5023537;28;20899;-70
2023/06/12 11:03:33;;;;;;;6.90;5.90;;;24.90;61.90;;;;;;5031392;28;20410;-70
2023/06/12 11:06:20;;;;;;;8.30;5.40;;;25.00;62.10;;;;;;5024368;28;20571;-69
2023/06/12 11:08:53;;;;;;;5.53;4.80;;;25.10;60.70;;;;;;5030178;28;20417;-69
2023/06/12 11:11:21;;;;;;;7.40;5.53;;;25.10;61.30;;;;;;5024412;28;20510;-70
2023/06/12 11:13:47;;;;;;;5.17;4.77;;;25.50;59.40;;;;;;5030887;28;20450;-70
2023/06/12 11:16:24;;;;;;;3.70;3.40;;;26.00;58.20;;;;;;5026298;28;20733;-70
2023/06/12 11:19:08;;;;;;;6.40;5.10;;;26.20;57.60;;;;;;5027013;28;20192;-69
2023/06/12 11:21:45;;;;;;;4.27;3.87;;;26.50;56.80;;;;;;5030258;28;20437;-70
2023/06/12 11:24:12;;;;;;;5.50;3.50;;;26.20;55.80;;;;;;5029109;28;20480;-69
2023/06/12 11:26:44;;;;;;;4.57;4.10;;;26.20;55.40;;;;;;5029061;28;20417;-70
2023/06/12 11:29:17;;;;;;;5.00;4.60;;;26.30;55.20;;;;;;5024369;28;20451;-70
2023/06/12 11:31:59;;;;;;;5.10;3.93;;;26.00;54.90;;;;;;5023815;28;20452;-70
2023/06/12 11:34:36;;;;;;;8.50;4.40;;;26.00;57.10;;;;;;5024236;28;20489;-70
2023/06/12 11:37:19;;;;;;;5.00;4.40;;;25.40;58.80;;;;;;5023496;28;20420;-70
2023/06/12 11:39:44;;;;;;;4.17;3.77;;;25.10;59.80;;;;;;5017531;28;20854;-71
2023/06/12 11:42:13;;;;;;;4.80;4.30;;;25.10;59.70;;;;;;5018749;28;20548;-69
2023/06/12 11:44:39;;;;;;;3.60;3.20;;;25.10;59.80;;;;;;5025864;28;20547;-70
2023/06/12 11:47:09;;;;;;;5.63;3.70;;;25.40;59.30;;;;;;5021049;28;20446;-70
2023/06/12 11:49:39;;;;;;;4.77;4.00;;;25.60;59.10;;;;;;5025887;28;20810;-70
2023/06/12 11:52:08;;;;;;;5.33;4.20;;;25.60;58.60;;;;;;5030568;28;20399;-70
2023/06/12 11:55:15;;;;;;;3.83;3.53;;;25.80;58.50;;;;;;5025151;28;20463;-70
2023/06/12 11:57:48;;;;;;;4.30;3.87;;;25.50;57.90;;;;;;5026294;28;20752;-69
2023/06/12 12:00:20;;;;;;;5.10;4.57;;;25.40;58.20;;;;;;5025550;28;20539;-70
2023/06/12 12:02:51;;;;;;;5.07;4.43;;;25.40;58.20;;;;;;5058633;22;20480;-70
2023/06/12 12:05:24;;;;;;;5.10;4.70;;;25.10;58.40;;;;;;5071756;28;20524;-66
2023/06/12 12:07:57;;;;;;;4.80;4.00;;;25.20;58.80;;;;;;5073909;28;20836;-66
2023/06/12 12:10:24;;;;;;;5.37;4.37;;;25.50;57.90;;;;;;5073209;28;20412;-66
2023/06/12 12:12:51;;;;;;;5.57;4.33;;;25.70;57.60;;;;;;5065552;28;20457;-66
2023/06/12 12:15:20;;;;;;;6.00;3.50;;;26.10;57.00;;;;;;5054682;28;20431;-68
2023/06/12 12:17:47;;;;;;;6.93;4.03;;;25.90;56.80;;;;;;5066820;28;20417;-66
2023/06/12 12:20:15;;;;;;;4.27;3.87;;;25.60;56.60;;;;;;5053835;28;20404;-65
2023/06/12 12:22:43;;;;;;;5.00;4.07;;;25.70;56.10;;;;;;5060769;28;20537;-69
2023/06/12 12:25:13;;;;;;;4.53;3.60;;;25.90;55.20;;;;;;5063775;28;20442;-68
2023/06/12 12:27:39;;;;;;;4.60;3.83;;;26.00;56.10;;;;;;5060761;28;20414;-68
2023/06/12 12:30:05;;;;;;;5.07;4.50;;;26.20;56.50;;;;;;5063269;28;20422;-68
2023/06/12 12:32:32;;;;;;;4.90;3.80;;;26.30;55.50;;;;;;5062570;28;20181;-68
2023/06/12 12:34:57;;;;;;;4.50;4.10;;;26.10;56.20;;;;;;5065429;28;20410;-68
2023/06/12 12:37:24;;;;;;;4.07;3.37;;;26.10;55.50;;;;;;5056903;28;20405;-68
2023/06/12 12:39:49;;;;;;;3.80;3.50;;;26.00;55.90;;;;;;5062878;28;20177;-67
2023/06/12 12:42:15;;;;;;;3.40;3.20;;;25.90;56.20;;;;;;5061248;28;21023;-68
2023/06/12 12:44:41;;;;;;;3.67;3.37;;;25.90;56.40;;;;;;5060459;28;20185;-68
2023/06/12 12:47:07;;;;;;;4.70;3.63;;;26.00;56.90;;;;;;5062844;28;20160;-68
2023/06/12 12:49:32;;;;;;;7.40;3.67;;;26.00;56.20;;;;;;5058854;28;20251;-70
2023/06/12 12:51:58;;;;;;;6.03;4.10;;;26.20;55.70;;;;;;5060512;28;20168;-67
2023/06/12 12:54:24;;;;;;;4.27;3.53;;;26.20;55.10;;;;;;5059403;28;20211;-67
2023/06/12 12:56:50;;;;;;;4.13;3.53;;;26.30;55.50;;;;;;5059256;28;20243;-68